| time (UTC) | temp C | wind direction | speed KPH | gust KPH | rain 1hr cm | rain 24hr cm | rain mn cm | humidity % | barometer mb |
| 20260510071458 | 10 | 151 | 0.0 | 1.6 | 0.00 | 0.00 | 0.00 | 75 | 1008.4 |
| 20260510070956 | 10 | 145 | 1.6 | 1.6 | 0.00 | 0.00 | 0.00 | 75 | 1008.3 |
| 20260510070453 | 10 | 149 | 0.0 | 1.6 | 0.00 | 0.00 | 0.00 | 74 | 1008.5 |
| 20260510065949 | 10 | 151 | 0.0 | 0.0 | 0.00 | 0.00 | 0.00 | 74 | 1008.3 |
| 20260510065446 | 10 | 163 | 1.6 | 1.6 | 0.00 | 0.00 | 0.00 | 75 | 1008.4 |
| 20260510064942 | 10 | 125 | 3.2 | 3.2 | 0.00 | 0.00 | 0.00 | 75 | 1008.3 |
| 20260510064439 | 10 | 149 | 0.0 | 0.0 | 0.00 | 0.00 | 0.00 | 76 | 1008.2 |
| 20260510063936 | 10 | 160 | 3.2 | 4.8 | 0.00 | 0.00 | 0.00 | 75 | 1008.1 |
| 20260510063432 | 10 | 153 | 0.0 | 1.6 | 0.00 | 0.00 | 0.00 | 73 | 1008.2 |
| 20260510062930 | 11 | 157 | 1.6 | 3.2 | 0.00 | 0.00 | 0.00 | 70 | 1008.1 |
| 20260510062430 | 12 | 165 | 1.6 | 3.2 | 0.00 | 0.00 | 0.00 | 67 | 1008.3 |
| 20260510061926 | 12 | 171 | 1.6 | 3.2 | 0.00 | 0.00 | 0.00 | 66 | 1008.2 |
| 20260510061423 | 12 | 223 | 4.8 | 6.4 | 0.00 | 0.00 | 0.00 | 66 | 1008.2 |
| 20260510060919 | 12 | 233 | 6.4 | 6.4 | 0.00 | 0.00 | 0.00 | 64 | 1008.3 |
| 20260510060416 | 12 | 206 | 4.8 | 6.4 | 0.00 | 0.00 | 0.00 | 64 | 1008.2 |
| 20260510055912 | 12 | 196 | 8.0 | 11.3 | 0.00 | 0.00 | 0.00 | 64 | 1008.3 |
| 20260510055408 | 12 | 227 | 6.4 | 6.4 | 0.00 | 0.00 | 0.00 | 65 | 1008.1 |
| 20260510054906 | 12 | 209 | 3.2 | 3.2 | 0.00 | 0.00 | 0.00 | 66 | 1008.1 |
| 20260510054402 | 12 | 145 | 1.6 | 4.8 | 0.00 | 0.00 | 0.00 | 67 | 1008.1 |
| 20260510053857 | 11 | 207 | 3.2 | 4.8 | 0.00 | 0.00 | 0.00 | 70 | 1008.3 |
| 20260510053353 | 11 | 177 | 1.6 | 3.2 | 0.00 | 0.00 | 0.00 | 71 | 1008.5 |
| 20260510052849 | 12 | 222 | 3.2 | 4.8 | 0.00 | 0.00 | 0.00 | 68 | 1008.3 |
| 20260510052345 | 12 | 187 | 4.8 | 4.8 | 0.00 | 0.00 | 0.00 | 65 | 1008.3 |
| 20260510051841 | 12 | 228 | 4.8 | 9.7 | 0.00 | 0.00 | 0.00 | 65 | 1008.2 |
| 20260510051338 | 12 | 247 | 4.8 | 6.4 | 0.00 | 0.00 | 0.00 | 65 | 1008.3 |
| 20260510050835 | 11 | 233 | 6.4 | 6.4 | 0.00 | 0.00 | 0.00 | 68 | 1008.1 |
| 20260510050332 | 11 | 207 | 4.8 | 6.4 | 0.00 | 0.00 | 0.00 | 70 | 1008.4 |
| 20260510045829 | 12 | 227 | 6.4 | 6.4 | 0.00 | 0.00 | 0.00 | 69 | 1008.5 |
| 20260510045325 | 12 | 197 | 3.2 | 4.8 | 0.00 | 0.00 | 0.00 | 69 | 1008.4 |
| 20260510044823 | 12 | 186 | 3.2 | 4.8 | 0.00 | 0.00 | 0.00 | 68 | 1008.2 |
| 20260510044320 | 11 | 232 | 6.4 | 9.7 | 0.00 | 0.00 | 0.00 | 69 | 1008.5 |
| 20260510043816 | 11 | 223 | 3.2 | 6.4 | 0.00 | 0.00 | 0.00 | 70 | 1008.4 |
| 20260510043312 | 11 | 216 | 3.2 | 4.8 | 0.00 | 0.00 | 0.00 | 69 | 1008.5 |
| 20260510042810 | 11 | 176 | 3.2 | 3.2 | 0.00 | 0.00 | 0.00 | 70 | 1008.5 |
| 20260510042307 | 11 | 192 | 3.2 | 4.8 | 0.00 | 0.00 | 0.00 | 70 | 1008.5 |
| 20260510041802 | 11 | 168 | 1.6 | 3.2 | 0.00 | 0.00 | 0.00 | 70 | 1008.4 |
| 20260510041259 | 11 | 187 | 3.2 | 4.8 | 0.00 | 0.00 | 0.00 | 70 | 1008.3 |
| 20260510040757 | 11 | 205 | 0.0 | 3.2 | 0.00 | 0.00 | 0.00 | 71 | 1008.4 |
| 20260510040253 | 11 | 152 | 1.6 | 4.8 | 0.00 | 0.00 | 0.00 | 73 | 1008.3 |
| 20260510035749 | 11 | 154 | 1.6 | 3.2 | 0.00 | 0.00 | 0.00 | 73 | 1008.5 |
| 20260510035245 | 11 | 166 | 3.2 | 4.8 | 0.00 | 0.00 | 0.00 | 71 | 1008.4 |
| 20260510034740 | 12 | 150 | 1.6 | 3.2 | 0.00 | 0.00 | 0.00 | 70 | 1008.3 |
| 20260510034239 | 11 | 153 | 0.0 | 1.6 | 0.00 | 0.00 | 0.00 | 71 | 1008.5 |
| 20260510033734 | 12 | 226 | 4.8 | 4.8 | 0.00 | 0.00 | 0.00 | 71 | 1008.4 |
| 20260510033232 | 12 | 148 | 0.0 | 1.6 | 0.00 | 0.00 | 0.00 | 69 | 1008.2 |
| 20260510032728 | 13 | 157 | 1.6 | 3.2 | 0.00 | 0.00 | 0.00 | 66 | 1008.3 |
| 20260510032224 | 13 | 160 | 3.2 | 4.8 | 0.00 | 0.00 | 0.00 | 65 | 1008.5 |
| 20260510031719 | 13 | 176 | 1.6 | 3.2 | 0.00 | 0.00 | 0.00 | 66 | 1008.2 |
| 20260510031216 | 12 | 155 | 3.2 | 3.2 | 0.00 | 0.00 | 0.00 | 68 | 1008.2 |
| 20260510030715 | 13 | 138 | 3.2 | 4.8 | 0.00 | 0.00 | 0.00 | 66 | 1008.3 |
| 20260510030213 | 13 | 148 | 0.0 | 1.6 | 0.00 | 0.00 | 0.00 | 65 | 1008.2 |
| 20260510025710 | 13 | 147 | 1.6 | 1.6 | 0.00 | 0.00 | 0.00 | 63 | 1008.1 |
| 20260510025208 | 13 | 133 | 1.6 | 3.2 | 0.00 | 0.00 | 0.00 | 65 | 1008.2 |
| 20260510024704 | 13 | 163 | 6.4 | 6.4 | 0.00 | 0.00 | 0.00 | 67 | 1008.2 |
| 20260510024201 | 12 | 147 | 0.0 | 3.2 | 0.00 | 0.00 | 0.00 | 68 | 1008.1 |
| 20260510023656 | 12 | 147 | 1.6 | 3.2 | 0.00 | 0.00 | 0.00 | 71 | 1008.1 |
| 20260510023154 | 12 | 150 | 3.2 | 3.2 | 0.00 | 0.00 | 0.00 | 70 | 1007.9 |
| 20260510022649 | 13 | 151 | 1.6 | 3.2 | 0.00 | 0.00 | 0.00 | 69 | 1007.9 |
| 20260510022144 | 14 | 152 | 3.2 | 9.7 | 0.00 | 0.00 | 0.00 | 66 | 1007.7 |
| 20260510021640 | 13 | 178 | 1.6 | 3.2 | 0.00 | 0.00 | 0.00 | 67 | 1007.3 |
| 20260510021137 | 13 | 121 | 4.8 | 6.4 | 0.00 | 0.00 | 0.00 | 67 | 1007.5 |
| 20260510020632 | 14 | 162 | 6.4 | 6.4 | 0.00 | 0.00 | 0.00 | 66 | 1007.5 |
| 20260510020127 | 15 | 155 | 8.0 | 11.3 | 0.00 | 0.00 | 0.00 | 61 | 1007.3 |
| 20260510015624 | 15 | 147 | 4.8 | 4.8 | 0.00 | 0.00 | 0.00 | 61 | 1007.1 |
| 20260510015120 | 16 | 150 | 0.0 | 9.7 | 0.00 | 0.00 | 0.00 | 59 | 1007.0 |
| 20260510014615 | 15 | 152 | 3.2 | 4.8 | 0.00 | 0.00 | 0.00 | 59 | 1007.0 |
| 20260510014114 | 15 | 151 | 0.0 | 3.2 | 0.00 | 0.00 | 0.00 | 60 | 1007.1 |
| 20260510013608 | 15 | 166 | 1.6 | 3.2 | 0.00 | 0.00 | 0.00 | 62 | 1007.0 |
| 20260510013104 | 15 | 145 | 1.6 | 3.2 | 0.00 | 0.00 | 0.00 | 61 | 1007.0 |
| 20260510012603 | 16 | 150 | 0.0 | 1.6 | 0.00 | 0.00 | 0.00 | 60 | 1006.8 |
| 20260510012100 | 17 | 101 | 3.2 | 4.8 | 0.00 | 0.00 | 0.00 | 55 | 1006.8 |
| 20260510011559 | 17 | 151 | 1.6 | 1.6 | 0.00 | 0.00 | 0.00 | 54 | 1006.7 |
| 20260510011055 | 17 | 149 | 3.2 | 3.2 | 0.00 | 0.00 | 0.00 | 54 | 1006.6 |
| 20260510010552 | 18 | 144 | 0.0 | 1.6 | 0.00 | 0.00 | 0.00 | 54 | 1006.6 |
| 20260510010049 | 18 | 141 | 0.0 | 1.6 | 0.00 | 0.00 | 0.00 | 53 | 1006.3 |
| 20260510005544 | 18 | 147 | 0.0 | 0.0 | 0.00 | 0.00 | 0.00 | 51 | 1006.3 |
| 20260510005042 | 19 | 145 | 1.6 | 4.8 | 0.00 | 0.00 | 0.00 | 49 | 1006.3 |
| 20260510004540 | 19 | 147 | 3.2 | 4.8 | 0.00 | 0.00 | 0.00 | 47 | 1006.1 |
| 20260510004038 | 19 | 141 | 4.8 | 4.8 | 0.00 | 0.00 | 0.00 | 47 | 1005.9 |
| 20260510003534 | 19 | 129 | 3.2 | 4.8 | 0.00 | 0.00 | 0.00 | 46 | 1006.0 |
| 20260510003035 | 19 | 139 | 3.2 | 3.2 | 0.00 | 0.00 | 0.00 | 44 | 1005.7 |
| 20260510002530 | 19 | 148 | 0.0 | 0.0 | 0.00 | 0.00 | 0.00 | 44 | 1005.7 |
| 20260510002028 | 20 | 148 | 0.0 | 1.6 | 0.00 | 0.00 | 0.00 | 43 | 1005.5 |
| 20260510001525 | 20 | 143 | 0.0 | 0.0 | 0.00 | 0.00 | 0.00 | 42 | 1005.4 |
| 20260510001023 | 21 | 138 | 1.6 | 1.6 | 0.00 | 0.00 | 0.00 | 40 | 1005.2 |
| 20260510000518 | 21 | 142 | 0.0 | 1.6 | 0.00 | 0.00 | 0.00 | 38 | 1005.4 |
| 20260510000015 | 22 | 80 | 0.0 | 1.6 | 0.00 | 0.00 | 0.00 | 37 | 1005.3 |
| 20260509235512 | 22 | 144 | 0.0 | 1.6 | 0.00 | 0.00 | 0.00 | 36 | 1005.4 |
| 20260509235009 | 23 | 137 | 0.0 | 3.2 | 0.00 | 0.00 | 0.00 | 36 | 1005.4 |
| 20260509234505 | 23 | 110 | 0.0 | 3.2 | 0.00 | 0.00 | 0.00 | 36 | 1005.3 |
| 20260509234003 | 23 | 183 | 3.2 | 4.8 | 0.00 | 0.00 | 0.00 | 35 | 1005.4 |
| 20260509233500 | 23 | 142 | 1.6 | 6.4 | 0.00 | 0.00 | 0.00 | 34 | 1005.4 |
| 20260509232956 | 23 | 103 | 0.0 | 3.2 | 0.00 | 0.00 | 0.00 | 34 | 1005.2 |
| 20260509232454 | 23 | 120 | 0.0 | 6.4 | 0.00 | 0.00 | 0.00 | 34 | 1005.3 |
| 20260509231950 | 23 | 135 | 1.6 | 6.4 | 0.00 | 0.00 | 0.00 | 34 | 1005.2 |
| 20260509231446 | 23 | 125 | 0.0 | 3.2 | 0.00 | 0.00 | 0.00 | 35 | 1005.1 |
| 20260509230945 | 22 | 160 | 0.0 | 3.2 | 0.00 | 0.00 | 0.00 | 35 | 1005.2 |
| 20260509230441 | 22 | 78 | 4.8 | 9.7 | 0.00 | 0.00 | 0.00 | 35 | 1005.1 |
| 20260509225937 | 22 | 21 | 6.4 | 6.4 | 0.00 | 0.00 | 0.00 | 35 | 1005.0 |
| 20260509225433 | 22 | 336 | 8.0 | 9.7 | 0.00 | 0.00 | 0.00 | 35 | 1005.0 |
| 20260509224930 | 22 | 349 | 8.0 | 11.3 | 0.00 | 0.00 | 0.00 | 34 | 1005.1 |
| 20260509224425 | 22 | 109 | 3.2 | 9.7 | 0.00 | 0.00 | 0.00 | 35 | 1005.0 |
| 20260509223923 | 22 | 318 | 6.4 | 16.1 | 0.00 | 0.00 | 0.00 | 33 | 1005.0 |
| 20260509223419 | 22 | 242 | 9.7 | 12.9 | 0.00 | 0.00 | 0.00 | 34 | 1005.0 |
| 20260509222917 | 22 | 142 | 9.7 | 12.9 | 0.00 | 0.00 | 0.00 | 34 | 1005.0 |
| 20260509222412 | 22 | 145 | 3.2 | 14.5 | 0.00 | 0.00 | 0.00 | 34 | 1005.2 |
| 20260509221907 | 22 | 14 | 8.0 | 11.3 | 0.00 | 0.00 | 0.00 | 34 | 1004.9 |
| 20260509221405 | 22 | 272 | 8.0 | 11.3 | 0.00 | 0.00 | 0.00 | 34 | 1005.0 |
| 20260509220900 | 22 | 308 | 8.0 | 12.9 | 0.00 | 0.00 | 0.00 | 33 | 1005.0 |
| 20260509220356 | 22 | 88 | 8.0 | 12.9 | 0.00 | 0.00 | 0.00 | 33 | 1004.8 |
| 20260509215852 | 22 | 87 | 8.0 | 9.7 | 0.00 | 0.00 | 0.00 | 35 | 1005.0 |
| 20260509215349 | 22 | 320 | 9.7 | 16.1 | 0.00 | 0.00 | 0.00 | 33 | 1004.9 |
| 20260509214846 | 22 | 335 | 12.9 | 17.7 | 0.00 | 0.00 | 0.00 | 32 | 1005.0 |
| 20260509214343 | 22 | 335 | 9.7 | 14.5 | 0.00 | 0.00 | 0.00 | 34 | 1005.0 |
| 20260509213840 | 22 | 147 | 6.4 | 12.9 | 0.00 | 0.00 | 0.00 | 32 | 1005.0 |
| 20260509213335 | 22 | 276 | 4.8 | 4.8 | 0.00 | 0.00 | 0.00 | 32 | 1004.9 |
| 20260509212833 | 22 | 150 | 4.8 | 4.8 | 0.00 | 0.00 | 0.00 | 32 | 1004.8 |
| 20260509212331 | 22 | 287 | 3.2 | 4.8 | 0.00 | 0.00 | 0.00 | 32 | 1004.7 |
| 20260509211826 | 22 | 137 | 3.2 | 6.4 | 0.00 | 0.00 | 0.00 | 32 | 1004.6 |
| 20260509211322 | 23 | 125 | 4.8 | 9.7 | 0.00 | 0.00 | 0.00 | 31 | 1004.6 |
| 20260509210819 | 23 | 138 | 6.4 | 11.3 | 0.00 | 0.00 | 0.00 | 31 | 1004.5 |
| 20260509210317 | 23 | 250 | 9.7 | 12.9 | 0.00 | 0.00 | 0.00 | 32 | 1004.5 |
| 20260509205817 | 23 | 205 | 6.4 | 11.3 | 0.00 | 0.00 | 0.00 | 37 | 1004.4 |
| 20260509205312 | 23 | 159 | 3.2 | 6.4 | 0.00 | 0.00 | 0.00 | 38 | 1004.5 |
| 20260509204808 | 22 | 219 | 9.7 | 14.5 | 0.00 | 0.00 | 0.00 | 40 | 1004.5 |
| 20260509204304 | 22 | 195 | 6.4 | 11.3 | 0.00 | 0.00 | 0.00 | 41 | 1004.4 |
| 20260509203800 | 22 | 263 | 9.7 | 14.5 | 0.00 | 0.00 | 0.00 | 39 | 1004.4 |
| 20260509203258 | 22 | 277 | 9.7 | 16.1 | 0.00 | 0.00 | 0.00 | 39 | 1004.5 |
| 20260509202754 | 22 | 256 | 6.4 | 12.9 | 0.00 | 0.00 | 0.00 | 39 | 1004.4 |
| 20260509202250 | 22 | 247 | 9.7 | 20.9 | 0.00 | 0.00 | 0.00 | 39 | 1004.4 |
| 20260509201749 | 22 | 329 | 8.0 | 9.7 | 0.00 | 0.00 | 0.00 | 37 | 1004.2 |
| 20260509201246 | 22 | 273 | 8.0 | 14.5 | 0.00 | 0.00 | 0.00 | 37 | 1004.4 |
| 20260509200743 | 22 | 271 | 9.7 | 12.9 | 0.00 | 0.00 | 0.00 | 38 | 1004.4 |
| 20260509200244 | 22 | 249 | 16.1 | 20.9 | 0.00 | 0.00 | 0.00 | 37 | 1004.2 |
| 20260509195740 | 22 | 257 | 14.5 | 16.1 | 0.00 | 0.00 | 0.00 | 39 | 1004.6 |
| 20260509195235 | 22 | 251 | 9.7 | 11.3 | 0.00 | 0.00 | 0.00 | 37 | 1004.5 |
| 20260509194730 | 22 | 161 | 3.2 | 9.7 | 0.00 | 0.00 | 0.00 | 36 | 1004.5 |
| 20260509194227 | 22 | 128 | 9.7 | 14.5 | 0.00 | 0.00 | 0.00 | 37 | 1004.8 |
| 20260509193724 | 22 | 250 | 11.3 | 14.5 | 0.00 | 0.00 | 0.00 | 36 | 1004.7 |
| 20260509193223 | 22 | 278 | 20.9 | 25.7 | 0.00 | 0.00 | 0.00 | 35 | 1004.7 |
| 20260509192720 | 22 | 233 | 17.7 | 22.5 | 0.00 | 0.00 | 0.00 | 36 | 1004.9 |
| 20260509192215 | 22 | 259 | 14.5 | 27.4 | 0.00 | 0.00 | 0.00 | 35 | 1004.9 |
| 20260509191710 | 22 | 230 | 9.7 | 16.1 | 0.00 | 0.00 | 0.00 | 36 | 1004.9 |
| 20260509191207 | 22 | 298 | 14.5 | 17.7 | 0.00 | 0.00 | 0.00 | 36 | 1005.0 |
| 20260509190703 | 22 | 235 | 19.3 | 27.4 | 0.00 | 0.00 | 0.00 | 37 | 1005.1 |
| 20260509190200 | 22 | 229 | 6.4 | 14.5 | 0.00 | 0.00 | 0.00 | 40 | 1005.0 |
| 20260509185658 | 22 | 308 | 16.1 | 27.4 | 0.00 | 0.00 | 0.00 | 38 | 1005.0 |
| 20260509185154 | 22 | 141 | 9.7 | 16.1 | 0.00 | 0.00 | 0.00 | 39 | 1005.1 |
| 20260509184652 | 22 | 258 | 12.9 | 17.7 | 0.00 | 0.00 | 0.00 | 39 | 1005.0 |
| 20260509184148 | 22 | 161 | 8.0 | 20.9 | 0.00 | 0.00 | 0.00 | 39 | 1005.3 |
| 20260509183645 | 22 | 254 | 12.9 | 16.1 | 0.00 | 0.00 | 0.00 | 38 | 1005.3 |
| 20260509183140 | 21 | 97 | 14.5 | 22.5 | 0.00 | 0.00 | 0.00 | 41 | 1005.2 |
| 20260509182636 | 22 | 283 | 19.3 | 25.7 | 0.00 | 0.00 | 0.00 | 40 | 1005.4 |
| 20260509182133 | 21 | 145 | 9.7 | 14.5 | 0.00 | 0.00 | 0.00 | 44 | 1005.5 |
| 20260509181631 | 21 | 258 | 9.7 | 11.3 | 0.00 | 0.00 | 0.00 | 44 | 1005.6 |
| 20260509181129 | 21 | 160 | 0.0 | 4.8 | 0.00 | 0.00 | 0.00 | 44 | 1005.6 |
| 20260509180625 | 20 | 158 | 4.8 | 11.3 | 0.00 | 0.00 | 0.00 | 46 | 1005.8 |
| 20260509180122 | 21 | 216 | 8.0 | 12.9 | 0.00 | 0.00 | 0.00 | 46 | 1005.9 |
| 20260509175617 | 21 | 102 | 4.8 | 11.3 | 0.00 | 0.00 | 0.00 | 45 | 1005.9 |
| 20260509175114 | 20 | 131 | 3.2 | 6.4 | 0.00 | 0.00 | 0.00 | 47 | 1006.1 |
| 20260509174611 | 21 | 157 | 8.0 | 11.3 | 0.00 | 0.00 | 0.00 | 46 | 1006.2 |
| 20260509174106 | 20 | 150 | 1.6 | 6.4 | 0.00 | 0.00 | 0.00 | 47 | 1006.4 |
| 20260509173601 | 20 | 210 | 3.2 | 12.9 | 0.00 | 0.00 | 0.00 | 47 | 1006.3 |
| 20260509173057 | 20 | 168 | 1.6 | 9.7 | 0.00 | 0.00 | 0.00 | 47 | 1006.1 |
| 20260509172555 | 20 | 202 | 4.8 | 6.4 | 0.00 | 0.00 | 0.00 | 48 | 1006.3 |
| 20260509172050 | 19 | 155 | 1.6 | 9.7 | 0.00 | 0.00 | 0.00 | 48 | 1006.4 |
| 20260509171546 | 20 | 196 | 6.4 | 11.3 | 0.00 | 0.00 | 0.00 | 46 | 1006.4 |
| 20260509171043 | 20 | 188 | 4.8 | 6.4 | 0.00 | 0.00 | 0.00 | 48 | 1006.3 |
| 20260509170539 | 20 | 146 | 3.2 | 11.3 | 0.00 | 0.00 | 0.00 | 47 | 1006.4 |
| 20260509170035 | 20 | 147 | 3.2 | 6.4 | 0.00 | 0.00 | 0.00 | 49 | 1006.6 |
| 20260509165534 | 19 | 156 | 1.6 | 6.4 | 0.00 | 0.00 | 0.00 | 49 | 1006.6 |
| 20260509165029 | 18 | 148 | 4.8 | 11.3 | 0.00 | 0.00 | 0.00 | 49 | 1006.8 |
| 20260509164526 | 19 | 242 | 8.0 | 12.9 | 0.00 | 0.00 | 0.00 | 49 | 1006.8 |
| 20260509164021 | 19 | 70 | 12.9 | 16.1 | 0.00 | 0.00 | 0.00 | 47 | 1006.8 |
| 20260509163520 | 19 | 176 | 6.4 | 6.4 | 0.00 | 0.00 | 0.00 | 47 | 1006.7 |
| 20260509163020 | 19 | 252 | 8.0 | 11.3 | 0.00 | 0.00 | 0.00 | 48 | 1006.7 |
| 20260509162518 | 19 | 247 | 11.3 | 20.9 | 0.00 | 0.00 | 0.00 | 47 | 1006.7 |
| 20260509162013 | 19 | 140 | 11.3 | 16.1 | 0.00 | 0.00 | 0.00 | 48 | 1006.6 |
| 20260509161510 | 19 | 159 | 4.8 | 16.1 | 0.00 | 0.00 | 0.00 | 46 | 1006.7 |
| 20260509161010 | 19 | 247 | 8.0 | 12.9 | 0.00 | 0.00 | 0.00 | 46 | 1006.8 |
| 20260509160506 | 20 | 250 | 9.7 | 12.9 | 0.00 | 0.00 | 0.00 | 47 | 1006.6 |
| 20260509160002 | 19 | 166 | 1.6 | 9.7 | 0.00 | 0.00 | 0.00 | 46 | 1006.6 |
| 20260509155458 | 20 | 227 | 6.4 | 9.7 | 0.00 | 0.00 | 0.00 | 46 | 1006.7 |
| 20260509154955 | 20 | 149 | 1.6 | 6.4 | 0.00 | 0.00 | 0.00 | 45 | 1006.7 |
| 20260509154451 | 19 | 152 | 3.2 | 4.8 | 0.00 | 0.00 | 0.00 | 45 | 1006.7 |
| 20260509153949 | 20 | 185 | 3.2 | 3.2 | 0.00 | 0.00 | 0.00 | 45 | 1006.6 |
| 20260509153445 | 20 | 192 | 3.2 | 3.2 | 0.00 | 0.00 | 0.00 | 46 | 1006.6 |
| 20260509152942 | 19 | 155 | 6.4 | 6.4 | 0.00 | 0.00 | 0.00 | 46 | 1006.5 |
| 20260509152438 | 19 | 162 | 1.6 | 3.2 | 0.00 | 0.00 | 0.00 | 47 | 1006.5 |
| 20260509151935 | 19 | 166 | 3.2 | 9.7 | 0.00 | 0.00 | 0.00 | 49 | 1006.6 |
| 20260509151432 | 18 | 207 | 6.4 | 9.7 | 0.00 | 0.00 | 0.00 | 49 | 1006.5 |
| 20260509150930 | 18 | 151 | 1.6 | 3.2 | 0.00 | 0.00 | 0.00 | 50 | 1006.5 |
| 20260509150427 | 18 | 195 | 4.8 | 6.4 | 0.00 | 0.00 | 0.00 | 51 | 1006.5 |
| 20260509145925 | 18 | 173 | 6.4 | 12.9 | 0.00 | 0.00 | 0.00 | 48 | 1006.7 |
| 20260509145425 | 18 | 166 | 3.2 | 6.4 | 0.00 | 0.00 | 0.00 | 50 | 1006.5 |
| 20260509144921 | 18 | 221 | 6.4 | 11.3 | 0.00 | 0.00 | 0.00 | 50 | 1006.7 |
| 20260509144418 | 18 | 160 | 1.6 | 6.4 | 0.00 | 0.00 | 0.00 | 53 | 1006.7 |
| 20260509143915 | 17 | 229 | 6.4 | 11.3 | 0.00 | 0.00 | 0.00 | 52 | 1006.8 |
| 20260509143412 | 17 | 247 | 11.3 | 12.9 | 0.00 | 0.00 | 0.00 | 53 | 1006.8 |
| 20260509142908 | 17 | 254 | 9.7 | 12.9 | 0.00 | 0.00 | 0.00 | 53 | 1006.8 |
| 20260509142405 | 17 | 150 | 6.4 | 11.3 | 0.00 | 0.00 | 0.00 | 53 | 1006.8 |
| 20260509141900 | 16 | 236 | 9.7 | 11.3 | 0.00 | 0.00 | 0.00 | 55 | 1006.9 |
| 20260509141358 | 16 | 158 | 6.4 | 12.9 | 0.00 | 0.00 | 0.00 | 54 | 1007.1 |
| 20260509140854 | 16 | 254 | 11.3 | 16.1 | 0.00 | 0.00 | 0.00 | 54 | 1007.1 |
| 20260509140351 | 16 | 229 | 9.7 | 16.1 | 0.00 | 0.00 | 0.00 | 54 | 1007.3 |
| 20260509135849 | 16 | 233 | 11.3 | 16.1 | 0.00 | 0.00 | 0.00 | 55 | 1007.3 |
| 20260509135346 | 16 | 243 | 14.5 | 20.9 | 0.00 | 0.00 | 0.00 | 55 | 1007.6 |
| 20260509134843 | 16 | 267 | 16.1 | 20.9 | 0.00 | 0.00 | 0.00 | 55 | 1007.3 |
| 20260509134341 | 16 | 186 | 11.3 | 14.5 | 0.00 | 0.00 | 0.00 | 55 | 1007.6 |
| 20260509133837 | 16 | 250 | 16.1 | 17.7 | 0.00 | 0.00 | 0.00 | 55 | 1007.7 |
| 20260509133334 | 15 | 130 | 14.5 | 22.5 | 0.00 | 0.00 | 0.00 | 56 | 1007.8 |
| 20260509132833 | 15 | 253 | 8.0 | 12.9 | 0.00 | 0.00 | 0.00 | 58 | 1007.7 |
| 20260509132331 | 15 | 206 | 4.8 | 9.7 | 0.00 | 0.00 | 0.00 | 58 | 1007.8 |
| 20260509131827 | 15 | 303 | 9.7 | 11.3 | 0.00 | 0.00 | 0.00 | 59 | 1007.7 |
| 20260509131324 | 14 | 241 | 8.0 | 14.5 | 0.00 | 0.00 | 0.00 | 60 | 1007.9 |
| 20260509130821 | 14 | 129 | 6.4 | 12.9 | 0.00 | 0.00 | 0.00 | 59 | 1007.7 |
| 20260509130316 | 14 | 250 | 6.4 | 9.7 | 0.00 | 0.00 | 0.00 | 60 | 1007.6 |
| 20260509125813 | 13 | 244 | 6.4 | 9.7 | 0.00 | 0.00 | 0.00 | 60 | 1007.8 |
| 20260509125310 | 13 | 230 | 4.8 | 6.4 | 0.00 | 0.00 | 0.00 | 60 | 1007.3 |
| 20260509124806 | 13 | 239 | 6.4 | 6.4 | 0.00 | 0.00 | 0.00 | 60 | 1007.3 |
| 20260509124303 | 13 | 205 | 4.8 | 6.4 | 0.00 | 0.00 | 0.00 | 61 | 1007.5 |
| 20260509123801 | 13 | 243 | 4.8 | 9.7 | 0.00 | 0.00 | 0.00 | 60 | 1007.3 |
| 20260509123258 | 13 | 232 | 4.8 | 6.4 | 0.00 | 0.00 | 0.00 | 60 | 1007.5 |
| 20260509122754 | 13 | 219 | 6.4 | 6.4 | 0.00 | 0.00 | 0.00 | 60 | 1007.5 |
| 20260509122251 | 13 | 150 | 0.0 | 4.8 | 0.00 | 0.00 | 0.00 | 61 | 1007.5 |
| 20260509121748 | 13 | 214 | 4.8 | 6.4 | 0.00 | 0.00 | 0.00 | 60 | 1007.7 |
| 20260509121245 | 12 | 253 | 6.4 | 6.4 | 0.00 | 0.00 | 0.00 | 59 | 1007.7 |
| 20260509120743 | 12 | 214 | 4.8 | 6.4 | 0.00 | 0.00 | 0.00 | 59 | 1007.7 |
| 20260509120240 | 12 | 210 | 6.4 | 9.7 | 0.00 | 0.00 | 0.00 | 59 | 1007.9 |
| 20260509115738 | 12 | 125 | 6.4 | 6.4 | 0.00 | 0.00 | 0.00 | 59 | 1007.7 |
| 20260509115235 | 12 | 181 | 3.2 | 4.8 | 0.00 | 0.00 | 0.00 | 60 | 1007.9 |
| 20260509114733 | 12 | 229 | 1.6 | 3.2 | 0.00 | 0.00 | 0.00 | 61 | 1007.6 |
| 20260509114232 | 12 | 160 | 0.0 | 1.6 | 0.00 | 0.00 | 0.00 | 61 | 1007.6 |
| 20260509113730 | 12 | 157 | 0.0 | 0.0 | 0.00 | 0.00 | 0.00 | 60 | 1007.8 |
| 20260509113227 | 12 | 154 | 0.0 | 0.0 | 0.00 | 0.00 | 0.00 | 60 | 1007.8 |
| 20260509112724 | 12 | 176 | 1.6 | 3.2 | 0.00 | 0.00 | 0.00 | 60 | 1007.6 |
| 20260509112221 | 12 | 157 | 1.6 | 4.8 | 0.00 | 0.00 | 0.00 | 60 | 1007.8 |
| 20260509111718 | 12 | 154 | 3.2 | 3.2 | 0.00 | 0.00 | 0.00 | 61 | 1007.6 |
| 20260509111215 | 12 | 266 | 3.2 | 4.8 | 0.00 | 0.00 | 0.00 | 59 | 1007.3 |
| 20260509110712 | 12 | 163 | 3.2 | 9.7 | 0.00 | 0.00 | 0.00 | 59 | 1007.3 |
| 20260509110209 | 12 | 241 | 4.8 | 9.7 | 0.00 | 0.00 | 0.00 | 58 | 1007.5 |
| 20260509105707 | 12 | 240 | 4.8 | 9.7 | 0.00 | 0.00 | 0.00 | 59 | 1007.3 |
| 20260509105204 | 12 | 219 | 6.4 | 6.4 | 0.00 | 0.00 | 0.00 | 58 | 1007.6 |
| 20260509104701 | 12 | 200 | 6.4 | 6.4 | 0.00 | 0.00 | 0.00 | 58 | 1007.2 |
| 20260509104158 | 12 | 180 | 4.8 | 9.7 | 0.00 | 0.00 | 0.00 | 57 | 1007.5 |
| 20260509103656 | 12 | 219 | 6.4 | 6.4 | 0.00 | 0.00 | 0.00 | 57 | 1007.6 |
| 20260509103153 | 12 | 243 | 6.4 | 6.4 | 0.00 | 0.00 | 0.00 | 57 | 1007.7 |
| 20260509102651 | 12 | 218 | 6.4 | 6.4 | 0.00 | 0.00 | 0.00 | 57 | 1007.7 |
| 20260509102148 | 12 | 218 | 6.4 | 6.4 | 0.00 | 0.00 | 0.00 | 58 | 1007.7 |
| 20260509101644 | 12 | 171 | 1.6 | 3.2 | 0.00 | 0.00 | 0.00 | 59 | 1007.7 |
| 20260509101141 | 12 | 177 | 1.6 | 3.2 | 0.00 | 0.00 | 0.00 | 58 | 1007.7 |
| 20260509100638 | 12 | 169 | 3.2 | 4.8 | 0.00 | 0.00 | 0.00 | 57 | 1007.7 |
| 20260509100135 | 12 | 192 | 3.2 | 4.8 | 0.00 | 0.00 | 0.00 | 57 | 1007.5 |
| 20260509095632 | 12 | 173 | 3.2 | 4.8 | 0.00 | 0.00 | 0.00 | 57 | 1007.8 |
| 20260509095129 | 12 | 209 | 3.2 | 4.8 | 0.00 | 0.00 | 0.00 | 57 | 1007.9 |
| 20260509094625 | 12 | 232 | 3.2 | 6.4 | 0.00 | 0.00 | 0.00 | 57 | 1007.7 |
| 20260509094123 | 12 | 169 | 1.6 | 4.8 | 0.00 | 0.00 | 0.00 | 57 | 1007.7 |
| 20260509093621 | 12 | 173 | 3.2 | 3.2 | 0.00 | 0.00 | 0.00 | 56 | 1007.7 |
| 20260509093118 | 12 | 187 | 3.2 | 3.2 | 0.00 | 0.00 | 0.00 | 55 | 1007.8 |
| 20260509092615 | 12 | 159 | 3.2 | 3.2 | 0.00 | 0.00 | 0.00 | 55 | 1007.7 |
| 20260509092114 | 12 | 170 | 1.6 | 1.6 | 0.00 | 0.00 | 0.00 | 57 | 1007.9 |
| 20260509091611 | 12 | 166 | 3.2 | 4.8 | 0.00 | 0.00 | 0.00 | 56 | 1007.6 |
| 20260509091107 | 12 | 175 | 1.6 | 3.2 | 0.00 | 0.00 | 0.00 | 53 | 1007.8 |
| 20260509090605 | 12 | 154 | 0.0 | 1.6 | 0.00 | 0.00 | 0.00 | 53 | 1007.7 |
| 20260509085600 | 12 | 159 | 1.6 | 3.2 | 0.00 | 0.00 | 0.00 | 53 | 1007.9 |
| 20260509085056 | 12 | 155 | 0.0 | 1.6 | 0.00 | 0.00 | 0.00 | 53 | 1007.8 |
| 20260509084553 | 12 | 149 | 0.0 | 0.0 | 0.00 | 0.00 | 0.00 | 53 | 1007.7 |
| 20260509084050 | 12 | 154 | 0.0 | 0.0 | 0.00 | 0.00 | 0.00 | 53 | 1007.9 |
| 20260509083547 | 12 | 150 | 0.0 | 1.6 | 0.00 | 0.00 | 0.00 | 53 | 1007.9 |
| 20260509083043 | 12 | 156 | 1.6 | 3.2 | 0.00 | 0.00 | 0.00 | 54 | 1008.2 |
| 20260509082542 | 12 | 153 | 0.0 | 0.0 | 0.00 | 0.00 | 0.00 | 54 | 1007.9 |
| 20260509082038 | 12 | 149 | 0.0 | 0.0 | 0.00 | 0.00 | 0.00 | 53 | 1008.1 |
| 20260509081536 | 13 | 157 | 0.0 | 0.0 | 0.00 | 0.00 | 0.00 | 53 | 1008.1 |
| 20260509081032 | 13 | 155 | 0.0 | 0.0 | 0.00 | 0.00 | 0.00 | 52 | 1008.1 |
| 20260509080530 | 13 | 147 | 0.0 | 0.0 | 0.00 | 0.00 | 0.00 | 53 | 1008.1 |
| 20260509080028 | 12 | 145 | 0.0 | 0.0 | 0.00 | 0.00 | 0.00 | 53 | 1008.0 |
| 20260509075525 | 12 | 149 | 0.0 | 1.6 | 0.00 | 0.00 | 0.00 | 53 | 1008.0 |
| 20260509075023 | 12 | 148 | 0.0 | 1.6 | 0.00 | 0.00 | 0.00 | 53 | 1008.0 |
| 20260509074520 | 12 | 137 | 0.0 | 0.0 | 0.00 | 0.00 | 0.00 | 53 | 1008.2 |
| 20260509074016 | 12 | 145 | 0.0 | 1.6 | 0.00 | 0.00 | 0.00 | 53 | 1008.1 |
| 20260509073513 | 12 | 152 | 0.0 | 1.6 | 0.00 | 0.00 | 0.00 | 53 | 1008.4 |
| 20260509073009 | 13 | 168 | 1.6 | 3.2 | 0.00 | 0.00 | 0.00 | 53 | 1008.3 |
| 20260509072506 | 13 | 190 | 3.2 | 4.8 | 0.00 | 0.00 | 0.00 | 53 | 1008.6 |
| 20260509072003 | 13 | 203 | 4.8 | 4.8 | 0.00 | 0.00 | 0.00 | 53 | 1008.3 |